Time;durP1;ratioP1;P1;durP2;ratioP2;P2;SDS_P1;SDS_P2;PMS_P1;PMS_P2;Temp;Humidity;BMP_temperature;BMP_pressure;BME280_temperature;BME280_humidity;BME280_pressure;Samples;Min_cycle;Max_cycle;Signal;HPM_P1;HPM_P2
2022/03/01 00:01:20;;;;;;;7.90;5.35;;;6.90;47.10;;;;;;4956733;29;20403;-83
2022/03/01 00:03:45;;;;;;;7.13;4.82;;;6.80;47.90;;;;;;4956975;28;20042;-83
2022/03/01 00:06:11;;;;;;;7.28;4.80;;;6.70;48.50;;;;;;4961997;28;20491;-83
2022/03/01 00:08:37;;;;;;;8.80;5.40;;;6.60;48.70;;;;;;4956940;29;20106;-83
2022/03/01 00:11:02;;;;;;;6.80;4.75;;;6.60;49.30;;;;;;4957208;29;20123;-80
2022/03/01 00:13:28;;;;;;;7.00;4.63;;;6.60;49.60;;;;;;4955231;29;20075;-80
2022/03/01 00:15:54;;;;;;;9.13;5.78;;;6.40;49.90;;;;;;4952144;29;20110;-80
2022/03/01 00:18:19;;;;;;;7.97;5.38;;;6.40;49.80;;;;;;4939809;28;20042;-81
2022/03/01 00:20:45;;;;;;;8.70;5.65;;;6.30;50.10;;;;;;4955079;29;20082;-79
2022/03/01 00:23:10;;;;;;;9.10;6.30;;;6.20;50.20;;;;;;4955311;28;20067;-81
2022/03/01 00:25:37;;;;;;;8.10;5.50;;;6.20;50.20;;;;;;4956083;29;20126;-79
2022/03/01 00:28:03;;;;;;;8.02;5.28;;;6.00;51.30;;;;;;4966818;28;20542;-79
2022/03/01 00:30:29;;;;;;;6.53;5.05;;;6.10;50.80;;;;;;4956018;28;20042;-79
2022/03/01 00:32:54;;;;;;;9.32;5.63;;;6.10;51.20;;;;;;4961794;28;20514;-80
2022/03/01 00:35:20;;;;;;;8.60;5.13;;;6.10;51.80;;;;;;4938738;29;20392;-80
2022/03/01 00:37:46;;;;;;;9.70;5.95;;;6.10;51.80;;;;;;4955603;29;20070;-79
2022/03/01 00:40:12;;;;;;;9.90;6.30;;;6.00;51.80;;;;;;4948438;29;20456;-79
2022/03/01 00:42:38;;;;;;;7.68;5.18;;;6.00;52.60;;;;;;4955207;29;20460;-78
2022/03/01 00:45:04;;;;;;;8.45;6.15;;;5.90;53.10;;;;;;4956064;29;20035;-79
2022/03/01 00:47:29;;;;;;;11.05;5.65;;;6.00;53.20;;;;;;4955538;28;20079;-79
2022/03/01 00:49:55;;;;;;;8.43;5.50;;;5.90;53.60;;;;;;4941295;28;20074;-80
2022/03/01 00:52:21;;;;;;;9.75;6.47;;;6.00;53.80;;;;;;4955278;28;20542;-79
2022/03/01 00:54:46;;;;;;;13.50;6.60;;;5.90;53.90;;;;;;4955116;29;20074;-80
2022/03/01 00:57:12;;;;;;;7.53;5.47;;;5.80;55.20;;;;;;4955320;29;20042;-79
2022/03/01 00:59:38;;;;;;;8.52;5.70;;;5.80;55.10;;;;;;4955210;29;20038;-79
2022/03/01 01:02:03;;;;;;;9.38;6.07;;;5.70;56.30;;;;;;4955244;29;20039;-80
2022/03/01 01:04:29;;;;;;;9.98;5.95;;;5.60;56.10;;;;;;4957938;28;20047;-79
2022/03/01 01:06:55;;;;;;;11.73;6.43;;;5.80;56.00;;;;;;4968136;28;20098;-79
2022/03/01 01:09:21;;;;;;;7.63;5.93;;;5.80;56.10;;;;;;4955195;29;20074;-79
2022/03/01 01:11:46;;;;;;;8.35;6.38;;;5.90;56.20;;;;;;4938423;29;20121;-80
2022/03/01 01:14:12;;;;;;;7.38;5.38;;;5.90;55.70;;;;;;4954789;28;20151;-79
2022/03/01 01:16:38;;;;;;;10.77;6.10;;;5.90;55.80;;;;;;4954601;28;20031;-80
2022/03/01 01:19:04;;;;;;;9.52;5.50;;;5.90;56.00;;;;;;4955001;29;20399;-79
2022/03/01 01:22:39;;;;;;;11.30;6.50;;;5.90;55.70;;;;;;4944204;29;20043;-80
2022/03/01 01:24:15;;;;;;;11.23;6.25;;;5.90;55.90;;;;;;4954270;29;20488;-80
2022/03/01 01:26:41;;;;;;;12.15;6.88;;;5.90;55.80;;;;;;4954539;28;20041;-80
2022/03/01 01:29:07;;;;;;;17.88;6.95;;;5.80;55.80;;;;;;4954632;29;20031;-80
2022/03/01 01:31:33;;;;;;;9.55;6.75;;;5.80;55.80;;;;;;4954602;28;20113;-80
2022/03/01 01:33:58;;;;;;;10.35;6.22;;;5.60;56.30;;;;;;4954675;29;20043;-80
2022/03/01 01:36:25;;;;;;;8.63;5.80;;;5.50;56.30;;;;;;4954476;29;20456;-80
2022/03/01 01:38:52;;;;;;;10.02;6.75;;;5.60;56.60;;;;;;4937249;29;20039;-80
2022/03/01 01:41:18;;;;;;;9.98;7.13;;;5.50;56.60;;;;;;4955052;29;20119;-79
2022/03/01 01:43:44;;;;;;;7.90;5.75;;;5.50;56.80;;;;;;4953794;29;20031;-79
2022/03/01 01:46:09;;;;;;;9.43;6.70;;;5.50;56.90;;;;;;4956707;28;20058;-80
2022/03/01 01:48:35;;;;;;;10.85;6.50;;;5.60;56.80;;;;;;4954230;29;20107;-80
2022/03/01 01:51:01;;;;;;;9.45;6.57;;;5.50;56.60;;;;;;4954498;29;20047;-79
2022/03/01 01:53:27;;;;;;;11.25;6.13;;;5.50;56.90;;;;;;4954632;29;20563;-80
2022/03/01 01:55:53;;;;;;;11.95;7.65;;;5.60;56.80;;;;;;4954563;29;20113;-79
2022/03/01 01:58:18;;;;;;;10.80;6.68;;;5.50;56.80;;;;;;4954722;29;20067;-80
2022/03/01 02:00:45;;;;;;;11.93;6.63;;;5.50;57.20;;;;;;4936943;29;20140;-79
2022/03/01 02:03:11;;;;;;;12.95;6.43;;;5.40;57.30;;;;;;4954673;29;20039;-79
2022/03/01 02:05:37;;;;;;;10.35;7.50;;;5.40;57.40;;;;;;4940144;29;20440;-79
2022/03/01 02:08:02;;;;;;;13.30;7.25;;;5.40;57.60;;;;;;4958237;29;20043;-80
2022/03/01 02:10:29;;;;;;;9.23;6.40;;;5.40;57.70;;;;;;4941452;28;20073;-79
2022/03/01 02:12:59;;;;;;;10.07;7.20;;;5.30;57.80;;;;;;4977186;28;20042;-80
2022/03/01 02:15:25;;;;;;;10.73;6.63;;;5.30;58.20;;;;;;4922304;29;20095;-80
2022/03/01 02:17:51;;;;;;;9.38;6.88;;;5.20;58.20;;;;;;4957444;28;20110;-79
2022/03/01 02:20:19;;;;;;;11.48;7.15;;;5.20;58.30;;;;;;4957916;29;20119;-79
2022/03/01 02:22:46;;;;;;;11.52;7.72;;;5.20;58.30;;;;;;4958080;29;20048;-79
2022/03/01 02:25:13;;;;;;;11.40;7.18;;;5.10;58.10;;;;;;4958190;29;20152;-79
2022/03/01 02:27:39;;;;;;;11.02;6.50;;;5.10;58.80;;;;;;4957421;29;20396;-79
2022/03/01 02:30:07;;;;;;;11.70;6.80;;;5.20;58.70;;;;;;4958060;29;20043;-80
2022/03/01 02:32:34;;;;;;;13.48;7.28;;;5.20;58.40;;;;;;4958297;28;20070;-80
2022/03/01 02:35:00;;;;;;;12.43;7.63;;;5.20;58.30;;;;;;4957830;29;20050;-80
2022/03/01 02:37:26;;;;;;;11.40;7.68;;;5.10;58.60;;;;;;4940913;29;20383;-80
2022/03/01 02:39:53;;;;;;;17.17;6.72;;;5.10;58.60;;;;;;4940618;28;20392;-80
2022/03/01 02:42:20;;;;;;;20.05;6.72;;;5.10;58.60;;;;;;4940762;29;20039;-79
2022/03/01 02:44:46;;;;;;;11.23;7.18;;;5.10;58.60;;;;;;4962669;28;20086;-79
2022/03/01 02:47:12;;;;;;;13.40;7.13;;;5.10;58.40;;;;;;4958400;29;20125;-80
2022/03/01 02:49:38;;;;;;;10.80;7.18;;;5.00;58.00;;;;;;4940432;29;20627;-79
2022/03/01 02:52:04;;;;;;;12.00;7.18;;;5.00;58.70;;;;;;4940828;29;20035;-80
2022/03/01 02:54:31;;;;;;;10.10;7.22;;;5.00;58.50;;;;;;4957371;29;20039;-79
2022/03/01 02:57:00;;;;;;;10.80;6.78;;;5.10;58.70;;;;;;4957392;28;20032;-79
2022/03/01 02:59:29;;;;;;;12.07;6.97;;;5.10;58.20;;;;;;4957695;29;20031;-79
2022/03/01 03:01:57;;;;;;;13.40;7.40;;;5.10;58.40;;;;;;4957727;28;20039;-79
2022/03/01 03:04:23;;;;;;;12.90;7.15;;;5.10;58.10;;;;;;4958122;28;20047;-78
2022/03/01 03:06:50;;;;;;;11.45;6.55;;;5.10;58.10;;;;;;4960886;28;20047;-78
2022/03/01 03:09:16;;;;;;;10.65;6.70;;;5.20;57.90;;;;;;4940013;28;20047;-78
2022/03/01 03:11:43;;;;;;;12.95;7.03;;;5.00;57.90;;;;;;4940510;29;20042;-78
2022/03/01 03:14:09;;;;;;;12.50;7.97;;;4.90;58.50;;;;;;4957315;29;20043;-78
2022/03/01 03:16:35;;;;;;;10.07;6.82;;;5.00;58.40;;;;;;4956872;28;20093;-78
2022/03/01 03:19:01;;;;;;;9.23;6.78;;;5.00;58.50;;;;;;4940225;29;20498;-79
2022/03/01 03:21:27;;;;;;;10.57;6.97;;;5.00;58.50;;;;;;4944637;29;20027;-78
2022/03/01 03:23:53;;;;;;;12.43;7.20;;;5.00;58.40;;;;;;4957003;29;20419;-77
2022/03/01 03:26:18;;;;;;;10.13;6.40;;;5.10;58.50;;;;;;4957344;29;20050;-79
2022/03/01 03:28:44;;;;;;;9.45;6.25;;;5.10;58.60;;;;;;4957041;29;20048;-79
2022/03/01 03:31:10;;;;;;;11.80;6.65;;;5.30;58.20;;;;;;4957155;29;20047;-79
2022/03/01 03:33:35;;;;;;;12.77;6.75;;;5.40;57.70;;;;;;4957179;29;20040;-80
2022/03/01 03:36:01;;;;;;;12.48;7.45;;;5.30;57.60;;;;;;4939936;29;20511;-78
2022/03/01 03:38:27;;;;;;;9.88;6.25;;;5.20;58.90;;;;;;4956949;29;20094;-79
2022/03/01 03:40:53;;;;;;;10.27;6.78;;;5.20;58.20;;;;;;4956828;29;20478;-78
2022/03/01 03:43:22;;;;;;;11.43;7.35;;;5.30;58.10;;;;;;4956532;29;20051;-78
2022/03/01 03:45:48;;;;;;;12.80;8.15;;;5.30;58.00;;;;;;4943995;29;20059;-78
2022/03/01 03:48:14;;;;;;;11.35;6.78;;;5.20;58.90;;;;;;4956651;28;20039;-78
2022/03/01 03:50:40;;;;;;;10.32;6.82;;;5.20;59.50;;;;;;4956747;29;20118;-79
2022/03/01 03:53:05;;;;;;;12.18;7.22;;;5.20;58.40;;;;;;4956495;29;20126;-79
2022/03/01 03:55:31;;;;;;;11.68;7.53;;;5.10;58.50;;;;;;4939096;29;20028;-79
2022/03/01 03:57:57;;;;;;;10.82;6.97;;;5.20;58.60;;;;;;4938176;29;20055;-79
2022/03/01 04:00:23;;;;;;;11.32;7.65;;;5.10;59.20;;;;;;4955667;29;20126;-78
2022/03/01 04:02:52;;;;;;;11.70;7.32;;;5.20;59.60;;;;;;4956700;28;20035;-79
2022/03/01 04:05:19;;;;;;;11.73;6.85;;;5.20;59.10;;;;;;4956866;28;20039;-78
2022/03/01 04:07:46;;;;;;;10.80;7.47;;;5.10;59.80;;;;;;4968100;28;20078;-79
2022/03/01 04:10:12;;;;;;;11.13;6.97;;;5.10;60.00;;;;;;4956617;29;20384;-79
2022/03/01 04:12:39;;;;;;;11.95;7.72;;;5.10;60.40;;;;;;4956484;29;20039;-78
2022/03/01 04:15:06;;;;;;;13.43;8.02;;;5.10;59.90;;;;;;4956353;29;20396;-79
2022/03/01 04:17:33;;;;;;;11.25;6.63;;;5.10;59.60;;;;;;4956312;29;20420;-79
2022/03/01 04:19:59;;;;;;;12.25;7.88;;;5.20;59.60;;;;;;4938791;29;20031;-79
2022/03/01 04:22:25;;;;;;;10.63;7.60;;;5.20;59.60;;;;;;4956152;29;20051;-78
2022/03/01 04:24:51;;;;;;;12.48;7.53;;;5.10;60.50;;;;;;4938715;29;20122;-78
2022/03/01 04:27:17;;;;;;;12.50;8.07;;;5.00;60.70;;;;;;4955212;28;20043;-78
2022/03/01 04:29:43;;;;;;;14.27;8.25;;;5.00;60.80;;;;;;4958953;28;20117;-77
2022/03/01 04:32:09;;;;;;;13.20;7.90;;;4.90;61.00;;;;;;4955963;29;20388;-78
2022/03/01 04:34:36;;;;;;;15.38;9.00;;;4.90;61.00;;;;;;4955475;29;20031;-78
2022/03/01 04:37:02;;;;;;;12.30;7.75;;;4.80;61.50;;;;;;4955718;29;20455;-77
2022/03/01 04:39:29;;;;;;;14.00;7.45;;;4.80;61.60;;;;;;4955911;29;20057;-78
2022/03/01 04:41:56;;;;;;;12.68;7.22;;;5.00;61.70;;;;;;4956120;28;20042;-79
2022/03/01 04:44:21;;;;;;;13.63;7.43;;;5.10;61.60;;;;;;4956038;28;20070;-80
2022/03/01 04:46:47;;;;;;;13.32;7.72;;;5.10;61.00;;;;;;4955780;29;20071;-78
2022/03/01 04:49:19;;;;;;;14.18;8.38;;;5.00;61.30;;;;;;5069937;28;20445;-80
2022/03/01 04:51:45;;;;;;;12.32;8.40;;;5.00;61.70;;;;;;5070378;28;20032;-79
2022/03/01 04:54:11;;;;;;;13.38;8.30;;;4.90;61.00;;;;;;5057038;28;20488;-79
2022/03/01 04:56:38;;;;;;;13.07;7.30;;;4.90;61.70;;;;;;5064285;28;20025;-79
2022/03/01 04:59:04;;;;;;;12.02;8.18;;;4.90;61.00;;;;;;5069316;28;20052;-79
2022/03/01 05:01:30;;;;;;;13.05;8.45;;;4.80;61.80;;;;;;5068943;28;20496;-80
2022/03/01 05:03:56;;;;;;;12.25;8.00;;;4.80;61.60;;;;;;5058969;28;20029;-79
2022/03/01 05:06:21;;;;;;;13.60;8.38;;;4.70;62.00;;;;;;5060876;28;20039;-79
2022/03/01 05:08:47;;;;;;;14.00;8.27;;;4.70;62.10;;;;;;5056738;28;20120;-79
2022/03/01 05:11:13;;;;;;;17.17;8.95;;;4.60;62.80;;;;;;5052475;28;20079;-78
2022/03/01 05:13:38;;;;;;;13.73;8.25;;;4.60;63.00;;;;;;5060876;28;20037;-79
2022/03/01 05:16:04;;;;;;;13.38;7.63;;;4.70;63.20;;;;;;5050061;28;20071;-78
2022/03/01 05:18:30;;;;;;;12.32;8.20;;;4.70;62.30;;;;;;5049648;28;20037;-79
2022/03/01 05:20:56;;;;;;;16.63;9.07;;;4.60;62.80;;;;;;5048315;28;20041;-79
2022/03/01 05:23:21;;;;;;;11.88;7.07;;;4.70;63.10;;;;;;5058973;28;20558;-80
2022/03/01 05:25:48;;;;;;;14.70;7.97;;;4.70;62.60;;;;;;5056526;28;20084;-80
2022/03/01 05:28:14;;;;;;;15.52;8.95;;;4.50;63.00;;;;;;5049919;28;20026;-80
2022/03/01 05:30:40;;;;;;;13.95;8.60;;;4.40;63.40;;;;;;5050102;28;20029;-80
2022/03/01 05:33:07;;;;;;;17.08;9.27;;;4.40;64.10;;;;;;5048528;28;20030;-80
2022/03/01 05:35:33;;;;;;;13.77;8.40;;;4.40;63.90;;;;;;5050062;28;20037;-79
2022/03/01 05:37:59;;;;;;;18.80;8.80;;;4.30;63.80;;;;;;5069557;28;20139;-79
2022/03/01 05:40:28;;;;;;;14.52;9.30;;;4.40;63.90;;;;;;5065409;28;20025;-80
2022/03/01 05:42:54;;;;;;;13.00;8.57;;;4.40;63.70;;;;;;5054182;28;20037;-80
2022/03/01 05:45:21;;;;;;;13.65;8.85;;;4.40;64.20;;;;;;5065112;28;20064;-81
2022/03/01 05:47:48;;;;;;;16.10;8.27;;;4.40;64.30;;;;;;5067701;28;20428;-80
2022/03/01 05:50:15;;;;;;;25.58;8.57;;;4.40;64.40;;;;;;5064815;28;20087;-80
2022/03/01 05:52:41;;;;;;;15.48;8.55;;;4.50;64.20;;;;;;5067324;28;20021;-79
2022/03/01 05:55:08;;;;;;;14.43;8.15;;;4.60;64.10;;;;;;5066665;28;20035;-79
2022/03/01 05:57:35;;;;;;;12.13;8.50;;;4.50;64.40;;;;;;5062029;28;20528;-79
2022/03/01 06:00:01;;;;;;;12.45;8.63;;;4.50;64.00;;;;;;5055400;28;20029;-78
2022/03/01 06:02:27;;;;;;;15.25;8.93;;;4.40;64.50;;;;;;5054810;28;20068;-78
2022/03/01 06:04:53;;;;;;;13.90;9.25;;;4.50;63.70;;;;;;5055033;28;20406;-80
2022/03/01 06:07:19;;;;;;;13.38;9.35;;;4.50;63.80;;;;;;5055968;28;20444;-79
2022/03/01 06:09:45;;;;;;;15.93;9.38;;;4.30;64.60;;;;;;5054010;28;20028;-79
2022/03/01 06:12:10;;;;;;;18.90;9.93;;;4.30;64.70;;;;;;5050262;28;20442;-79
2022/03/01 06:14:36;;;;;;;14.45;9.68;;;4.30;65.30;;;;;;5046354;28;20029;-80
2022/03/01 06:17:03;;;;;;;14.18;10.05;;;4.30;65.30;;;;;;5044779;28;20103;-81
2022/03/01 06:19:28;;;;;;;19.30;10.65;;;4.20;65.30;;;;;;5042721;28;20109;-83
2022/03/01 06:21:54;;;;;;;16.67;11.57;;;4.20;65.80;;;;;;5036686;28;20053;-85
2022/03/01 06:24:20;;;;;;;15.85;9.52;;;4.30;65.20;;;;;;5037232;28;20021;-86
2022/03/01 06:26:46;;;;;;;17.50;9.65;;;4.20;64.90;;;;;;5037576;28;20029;-82
2022/03/01 06:29:12;;;;;;;17.85;8.93;;;4.30;64.80;;;;;;5036865;28;20037;-82
2022/03/01 06:31:38;;;;;;;14.45;9.90;;;4.50;65.00;;;;;;5039281;28;20466;-82
2022/03/01 06:34:03;;;;;;;16.88;10.10;;;4.40;64.20;;;;;;5038560;28;20043;-82
2022/03/01 06:36:29;;;;;;;12.48;8.35;;;4.40;64.70;;;;;;5043535;28;20017;-82
2022/03/01 06:38:55;;;;;;;17.00;9.80;;;4.40;64.50;;;;;;5053793;28;20025;-81
2022/03/01 06:41:20;;;;;;;16.73;9.75;;;4.40;64.80;;;;;;5056088;28;20465;-82
2022/03/01 06:43:46;;;;;;;15.77;9.55;;;4.40;65.00;;;;;;5050186;28;20643;-86
2022/03/01 06:46:13;;;;;;;15.52;10.35;;;4.30;64.80;;;;;;5036413;28;20033;-83
2022/03/01 06:48:39;;;;;;;15.88;10.07;;;4.30;64.90;;;;;;5038055;28;20041;-82
2022/03/01 06:51:07;;;;;;;19.92;10.65;;;4.30;65.70;;;;;;5042802;28;20090;-82
2022/03/01 06:53:34;;;;;;;16.13;10.32;;;4.30;65.60;;;;;;5054872;28;20075;-82
2022/03/01 06:56:00;;;;;;;14.27;9.70;;;4.40;65.70;;;;;;5070547;28;20025;-82
2022/03/01 06:58:26;;;;;;;16.70;10.07;;;4.40;65.20;;;;;;5044825;28;20412;-82
2022/03/01 07:00:52;;;;;;;13.65;9.30;;;4.40;64.70;;;;;;5042577;28;20067;-83
2022/03/01 07:03:18;;;;;;;17.10;10.70;;;4.50;64.90;;;;;;5034157;28;20033;-81
2022/03/01 07:05:44;;;;;;;15.80;9.80;;;4.40;64.60;;;;;;5035013;28;20029;-81
2022/03/01 07:08:11;;;;;;;15.10;9.90;;;4.40;64.60;;;;;;5034507;28;20551;-82
2022/03/01 07:10:38;;;;;;;17.67;10.88;;;4.50;64.60;;;;;;5033796;28;20104;-86
2022/03/01 07:13:04;;;;;;;20.85;11.75;;;4.60;64.50;;;;;;5033429;28;20042;-85
2022/03/01 07:15:30;;;;;;;17.00;9.95;;;4.60;63.60;;;;;;5034243;28;20359;-84
2022/03/01 07:17:56;;;;;;;17.02;9.90;;;4.60;64.10;;;;;;5024515;28;20022;-83
2022/03/01 07:20:22;;;;;;;16.73;10.07;;;4.70;63.10;;;;;;5044430;28;20033;-83
2022/03/01 07:22:47;;;;;;;16.98;10.40;;;4.90;63.30;;;;;;5033185;28;20057;-83
2022/03/01 07:25:14;;;;;;;20.38;10.98;;;5.00;62.40;;;;;;5029324;28;20025;-84
2022/03/01 07:27:49;;;;;;;15.98;10.13;;;4.90;60.60;;;;;;5033573;28;20055;-84
2022/03/01 07:30:16;;;;;;;17.35;10.70;;;4.90;60.60;;;;;;5035219;28;20026;-85
2022/03/01 07:32:42;;;;;;;17.88;10.27;;;4.90;60.40;;;;;;5032749;28;20100;-89
2022/03/01 07:35:08;;;;;;;16.85;9.95;;;4.90;60.30;;;;;;5031883;28;20145;-83
2022/03/01 07:37:34;;;;;;;14.30;9.05;;;4.90;60.70;;;;;;5033391;28;20052;-82
2022/03/01 07:40:01;;;;;;;13.82;9.20;;;5.10;61.30;;;;;;5033674;28;20029;-83
2022/03/01 07:42:27;;;;;;;13.27;8.27;;;5.30;59.40;;;;;;5034864;28;20032;-83
2022/03/01 07:44:52;;;;;;;13.98;8.63;;;5.50;59.50;;;;;;5033072;28;20025;-83
2022/03/01 07:47:18;;;;;;;15.07;9.48;;;5.70;59.10;;;;;;5033983;28;20568;-83
2022/03/01 07:49:44;;;;;;;15.75;8.95;;;5.90;58.50;;;;;;5034768;28;20018;-83
2022/03/01 07:52:10;;;;;;;15.70;10.00;;;5.80;58.40;;;;;;5034968;28;20025;-83
2022/03/01 07:54:35;;;;;;;12.98;9.13;;;6.00;57.70;;;;;;5033757;28;20040;-83
2022/03/01 07:57:01;;;;;;;15.10;8.88;;;6.10;58.10;;;;;;5032579;28;20054;-84
2022/03/01 07:59:27;;;;;;;15.43;8.82;;;6.30;58.70;;;;;;5032602;28;20043;-84
2022/03/01 08:01:54;;;;;;;15.82;8.38;;;6.50;58.00;;;;;;5033722;28;20044;-83
2022/03/01 08:04:20;;;;;;;86.32;53.35;;;6.80;58.20;;;;;;5033409;28;20036;-83
2022/03/01 08:06:46;;;;;;;56.83;36.58;;;7.00;56.80;;;;;;5049426;28;20029;-84
2022/03/01 08:09:12;;;;;;;13.40;8.95;;;7.20;54.10;;;;;;5034095;28;20073;-86
2022/03/01 08:11:37;;;;;;;12.77;8.32;;;7.20;52.00;;;;;;5035169;28;20017;-86
2022/03/01 08:14:03;;;;;;;14.10;8.68;;;7.10;52.20;;;;;;5035081;28;20489;-87
2022/03/01 08:16:29;;;;;;;15.02;9.23;;;7.20;52.80;;;;;;5034674;28;20030;-86
2022/03/01 08:18:54;;;;;;;14.50;7.80;;;7.20;50.80;;;;;;5033911;28;20068;-86
2022/03/01 08:21:20;;;;;;;11.05;7.78;;;7.30;50.40;;;;;;5033815;28;20029;-86
2022/03/01 08:23:46;;;;;;;13.35;7.95;;;7.40;51.10;;;;;;5034300;28;20442;-86
2022/03/01 08:26:11;;;;;;;11.23;8.15;;;7.70;52.00;;;;;;5034692;28;20092;-86
2022/03/01 08:28:37;;;;;;;13.98;8.80;;;7.80;50.20;;;;;;5033970;28;20025;-87
2022/03/01 08:31:03;;;;;;;11.55;7.93;;;8.00;48.90;;;;;;5035310;28;20397;-87
2022/03/01 08:33:29;;;;;;;12.07;8.13;;;8.10;48.20;;;;;;5034487;28;20014;-87
2022/03/01 08:35:56;;;;;;;11.98;7.53;;;8.10;47.80;;;;;;5037378;28;20029;-85
2022/03/01 08:38:22;;;;;;;10.90;7.57;;;8.40;48.20;;;;;;5033246;28;20115;-85
2022/03/01 08:40:47;;;;;;;13.30;7.43;;;8.60;46.60;;;;;;5032668;28;20037;-85
2022/03/01 08:43:14;;;;;;;11.68;7.28;;;8.70;45.30;;;;;;5031890;28;20120;-85
2022/03/01 08:45:41;;;;;;;10.63;5.90;;;8.80;42.70;;;;;;5033957;28;20485;-84
2022/03/01 08:48:07;;;;;;;11.23;5.95;;;8.80;40.50;;;;;;5032099;28;20037;-85
2022/03/01 08:50:34;;;;;;;6.25;5.10;;;9.00;40.10;;;;;;5034127;28;20496;-85
2022/03/01 08:53:01;;;;;;;8.82;5.55;;;9.20;40.10;;;;;;5032662;28;20026;-86
2022/03/01 08:55:27;;;;;;;8.32;5.88;;;9.30;38.90;;;;;;5013633;28;20026;-85
2022/03/01 08:57:53;;;;;;;7.43;5.25;;;9.40;39.90;;;;;;5029427;28;20417;-85
2022/03/01 09:00:19;;;;;;;8.18;4.72;;;9.50;37.40;;;;;;5048458;28;20478;-86
2022/03/01 09:02:45;;;;;;;6.75;5.05;;;9.60;36.70;;;;;;5033636;28;20021;-86
2022/03/01 09:05:10;;;;;;;7.82;5.65;;;9.90;37.10;;;;;;5033755;28;20029;-85
2022/03/01 09:07:37;;;;;;;6.70;5.20;;;9.70;35.00;;;;;;5032984;28;20382;-85
2022/03/01 09:10:05;;;;;;;6.22;4.90;;;9.70;36.90;;;;;;5032278;28;20076;-85
2022/03/01 09:12:31;;;;;;;6.18;5.18;;;9.70;36.80;;;;;;5032400;28;20386;-86
2022/03/01 09:14:57;;;;;;;9.60;5.22;;;9.70;33.40;;;;;;5031749;28;20120;-86
2022/03/01 09:17:23;;;;;;;6.43;5.05;;;9.60;33.30;;;;;;5034155;28;20122;-85
2022/03/01 09:19:49;;;;;;;7.38;4.82;;;9.70;36.00;;;;;;5034509;28;20128;-86
2022/03/01 09:22:15;;;;;;;7.32;4.72;;;9.90;35.60;;;;;;5035630;28;20112;-85
2022/03/01 09:24:41;;;;;;;6.70;4.95;;;10.10;36.10;;;;;;5033952;28;20022;-85
2022/03/01 09:27:07;;;;;;;5.18;4.28;;;10.50;34.80;;;;;;5032978;28;20034;-85
2022/03/01 09:29:34;;;;;;;8.32;4.82;;;10.70;35.10;;;;;;5033017;28;20025;-85
2022/03/01 09:32:00;;;;;;;6.38;4.20;;;11.00;35.00;;;;;;5032788;28;20022;-86
2022/03/01 09:34:26;;;;;;;5.57;4.05;;;11.30;34.30;;;;;;5033650;28;20412;-86
2022/03/01 09:36:52;;;;;;;5.38;4.00;;;11.60;32.90;;;;;;5037113;28;20446;-84
2022/03/01 09:39:18;;;;;;;5.65;4.30;;;11.80;31.90;;;;;;5035723;28;20120;-85
2022/03/01 09:41:44;;;;;;;6.97;4.00;;;11.80;29.40;;;;;;5036188;28;20052;-85
2022/03/01 09:44:09;;;;;;;4.05;3.65;;;11.70;30.20;;;;;;5035258;28;20072;-85
2022/03/01 09:46:38;;;;;;;6.03;4.05;;;11.80;30.40;;;;;;5034834;28;20037;-84
2022/03/01 09:49:06;;;;;;;6.28;4.13;;;12.10;31.40;;;;;;5034212;28;20433;-84
2022/03/01 09:51:35;;;;;;;5.38;4.43;;;12.40;32.00;;;;;;5037073;28;20041;-86
2022/03/01 09:54:00;;;;;;;7.20;4.70;;;12.50;29.20;;;;;;5036289;28;20347;-85
2022/03/01 09:56:26;;;;;;;7.10;4.75;;;11.80;28.30;;;;;;5037494;28;20045;-85
2022/03/01 09:58:52;;;;;;;6.40;4.25;;;11.30;29.50;;;;;;5036877;28;20071;-85
2022/03/01 10:01:18;;;;;;;6.15;4.90;;;11.30;29.10;;;;;;5034868;28;20034;-85
2022/03/01 10:03:51;;;;;;;8.48;4.30;;;11.00;29.40;;;;;;5035729;28;20021;-85
2022/03/01 10:06:22;;;;;;;4.88;3.83;;;11.20;30.30;;;;;;5036952;28;20041;-85
2022/03/01 10:08:55;;;;;;;5.97;4.20;;;11.20;29.70;;;;;;5035889;28;20453;-85
2022/03/01 10:11:21;;;;;;;7.65;4.50;;;11.70;30.00;;;;;;5037188;28;20033;-86
2022/03/01 10:13:47;;;;;;;6.47;4.88;;;12.00;31.40;;;;;;5035690;28;20029;-85
2022/03/01 10:16:17;;;;;;;10.00;4.82;;;12.50;30.90;;;;;;5039661;28;20033;-86
2022/03/01 10:18:52;;;;;;;9.88;5.38;;;12.90;29.10;;;;;;5040035;28;20024;-86
2022/03/01 10:21:21;;;;;;;7.25;4.97;;;13.20;28.70;;;;;;5035662;28;20109;-86
2022/03/01 10:23:50;;;;;;;6.67;4.20;;;13.50;29.30;;;;;;5035786;28;20088;-85
2022/03/01 10:26:17;;;;;;;6.50;4.38;;;13.80;29.20;;;;;;5036072;28;20033;-85
2022/03/01 10:28:44;;;;;;;8.80;4.70;;;13.90;29.40;;;;;;5036354;28;20524;-85
2022/03/01 10:31:15;;;;;;;12.10;4.93;;;14.00;28.80;;;;;;5036796;28;20021;-85
2022/03/01 10:34:02;;;;;;;12.07;5.13;;;14.20;28.10;;;;;;5036379;28;20025;-85
2022/03/01 10:36:35;;;;;;;11.52;5.40;;;14.40;27.70;;;;;;5040513;28;20087;-85
2022/03/01 10:39:08;;;;;;;6.72;5.03;;;14.40;27.10;;;;;;5036422;28;20030;-84
2022/03/01 10:41:37;;;;;;;12.07;4.80;;;14.40;36.70;;;;;;5038092;28;20032;-84
2022/03/01 10:44:03;;;;;;;20.00;14.68;;;14.70;32.20;;;;;;5041902;28;20136;-81
2022/03/01 10:46:36;;;;;;;21.50;12.23;;;14.60;28.40;;;;;;5033655;28;20516;-85
2022/03/01 10:49:12;;;;;;;11.30;5.63;;;14.60;29.20;;;;;;5035048;28;20045;-86
2022/03/01 10:51:55;;;;;;;7.13;4.70;;;14.80;28.20;;;;;;5034667;28;20033;-86
2022/03/01 10:54:37;;;;;;;7.05;4.60;;;15.00;29.50;;;;;;5041754;28;20079;-87
2022/03/01 10:57:22;;;;;;;9.82;4.75;;;15.10;28.50;;;;;;5041739;28;20029;-87
2022/03/01 10:59:50;;;;;;;8.45;5.05;;;15.10;28.00;;;;;;5035327;28;20029;-86
2022/03/01 11:02:17;;;;;;;7.90;4.88;;;15.20;27.40;;;;;;5035121;28;20018;-87
2022/03/01 11:04:46;;;;;;;9.85;4.93;;;15.00;27.90;;;;;;5036288;28;20033;-87
2022/03/01 11:07:13;;;;;;;7.78;4.43;;;15.10;27.90;;;;;;5041240;28;20064;-87
2022/03/01 11:09:40;;;;;;;5.43;4.20;;;15.40;28.20;;;;;;5055236;28;20036;-87
2022/03/01 11:12:08;;;;;;;9.05;4.32;;;15.20;28.00;;;;;;5042334;28;20140;-85
2022/03/01 11:15:12;;;;;;;8.43;5.15;;;15.10;27.80;;;;;;5035429;28;20070;-82
2022/03/01 11:17:49;;;;;;;8.30;5.43;;;15.10;28.40;;;;;;5030040;28;20049;-83
2022/03/01 11:20:22;;;;;;;8.52;5.25;;;15.10;28.20;;;;;;5034401;28;20036;-83
2022/03/01 11:22:58;;;;;;;5.82;4.65;;;15.20;27.40;;;;;;5050981;28;20025;-83
2022/03/01 11:25:27;;;;;;;8.90;4.55;;;15.10;27.60;;;;;;5041188;28;20037;-83
2022/03/01 11:28:01;;;;;;;7.40;5.17;;;15.00;29.00;;;;;;5035207;28;20033;-83
2022/03/01 11:30:32;;;;;;;7.68;4.90;;;15.10;28.40;;;;;;5034986;28;20018;-83
2022/03/01 11:32:58;;;;;;;10.40;4.75;;;15.20;28.20;;;;;;5054755;28;20036;-83
2022/03/01 11:35:29;;;;;;;5.80;4.82;;;15.30;28.00;;;;;;5034832;28;20025;-83
2022/03/01 11:38:12;;;;;;;7.47;4.45;;;15.60;29.10;;;;;;5034606;28;20564;-83
2022/03/01 11:40:43;;;;;;;7.85;5.03;;;15.80;27.50;;;;;;5045300;28;20025;-83
2022/03/01 11:43:21;;;;;;;7.85;4.90;;;16.00;28.30;;;;;;5039222;28;20033;-82
2022/03/01 11:45:54;;;;;;;8.20;4.88;;;16.10;27.20;;;;;;5033246;28;20665;-84
2022/03/01 11:48:22;;;;;;;9.10;5.13;;;16.10;27.10;;;;;;5032526;28;20136;-81
2022/03/01 11:51:10;;;;;;;5.03;4.25;;;16.20;27.10;;;;;;5051029;28;20025;-81
2022/03/01 11:53:40;;;;;;;8.52;4.45;;;16.60;27.10;;;;;;5048845;28;20048;-81
2022/03/01 11:56:07;;;;;;;9.77;5.30;;;16.80;25.60;;;;;;5026619;28;20036;-81
2022/03/01 11:58:42;;;;;;;5.43;4.38;;;17.20;26.50;;;;;;5032640;28;20695;-81
2022/03/01 12:01:09;;;;;;;11.55;4.65;;;17.50;25.70;;;;;;5042798;28;20029;-81
2022/03/01 12:03:39;;;;;;;7.93;4.55;;;17.80;25.50;;;;;;5039362;28;20025;-82
2022/03/01 12:06:05;;;;;;;6.05;4.30;;;18.10;25.90;;;;;;5031219;28;20025;-82
2022/03/01 12:08:32;;;;;;;5.00;3.90;;;18.40;24.00;;;;;;5033152;28;20037;-82
2022/03/01 12:11:06;;;;;;;7.07;4.63;;;18.50;24.90;;;;;;5040371;28;20036;-83
2022/03/01 12:13:49;;;;;;;5.40;4.30;;;18.50;24.50;;;;;;5031122;28;20501;-83
2022/03/01 12:16:36;;;;;;;10.48;4.63;;;18.10;23.50;;;;;;5026245;28;20033;-83
2022/03/01 12:19:13;;;;;;;8.32;4.43;;;18.40;24.40;;;;;;5030262;28;20118;-83
2022/03/01 12:21:45;;;;;;;6.22;4.35;;;18.40;24.10;;;;;;5031714;28;20040;-83
2022/03/01 12:24:11;;;;;;;7.97;5.03;;;18.50;24.20;;;;;;5030590;28;20025;-83
2022/03/01 12:26:50;;;;;;;7.38;4.75;;;18.80;24.20;;;;;;5031784;28;20029;-83
2022/03/01 12:29:18;;;;;;;9.68;5.10;;;18.60;24.00;;;;;;5031422;28;20116;-83
2022/03/01 12:32:12;;;;;;;6.28;4.35;;;18.60;24.30;;;;;;5030315;28;20106;-82
2022/03/01 12:34:41;;;;;;;6.65;4.78;;;18.80;25.60;;;;;;5045035;28;20022;-83
2022/03/01 12:37:10;;;;;;;6.10;4.55;;;19.00;24.00;;;;;;5033055;28;20104;-83
2022/03/01 12:39:37;;;;;;;7.28;4.68;;;18.90;24.50;;;;;;5024230;28;20076;-83
2022/03/01 12:42:06;;;;;;;6.82;4.47;;;18.80;24.70;;;;;;5031604;28;20041;-83
2022/03/01 12:44:33;;;;;;;6.45;4.43;;;18.60;24.00;;;;;;5032361;28;20029;-84
2022/03/01 12:47:03;;;;;;;7.85;4.95;;;18.50;23.70;;;;;;5032474;28;20031;-83
2022/03/01 12:49:33;;;;;;;7.37;4.43;;;18.50;23.90;;;;;;5032627;28;20083;-83